Time;durP1;ratioP1;P1;durP2;ratioP2;P2;SDS_P1;SDS_P2;PMS_P1;PMS_P2;Temp;Humidity;BMP_temperature;BMP_pressure;BME280_temperature;BME280_humidity;BME280_pressure;Samples;Min_cycle;Max_cycle;Signal;HPM_P1;HPM_P2
2021/03/11 00:00:37;;;;;;;57.40;40.25;;;8.20;99.90;;;8.36;94.07;99843.97;4919521;29;20054;-70
2021/03/11 00:03:13;;;;;;;60.88;41.28;;;8.20;99.90;;;8.32;94.84;99827.34;4936848;29;20078;-70
2021/03/11 00:05:41;;;;;;;58.03;40.60;;;8.20;99.90;;;8.32;94.79;99834.34;4936681;29;20541;-71
2021/03/11 00:08:08;;;;;;;60.20;41.95;;;8.20;99.90;;;8.33;95.62;99825.53;4936454;29;20490;-70
2021/03/11 00:10:37;;;;;;;58.55;41.25;;;8.20;99.90;;;8.33;95.52;99844.88;4936311;29;20055;-69
2021/03/11 00:13:05;;;;;;;59.60;40.75;;;8.20;99.90;;;8.35;96.15;99811.47;4919472;29;20062;-69
2021/03/11 00:15:34;;;;;;;63.38;43.80;;;8.20;99.90;;;8.37;95.91;99837.78;4936729;29;20048;-69
2021/03/11 00:18:04;;;;;;;60.20;42.72;;;8.20;99.90;;;8.39;96.41;99851.81;4936502;29;20056;-69
2021/03/11 00:20:32;;;;;;;64.70;43.35;;;8.20;99.90;;;8.40;96.41;99803.53;4936047;29;20794;-70
2021/03/11 00:22:59;;;;;;;65.05;45.50;;;8.20;99.90;;;8.22;97.02;99765.09;4936422;29;20098;-70
2021/03/11 00:25:29;;;;;;;69.18;45.95;;;8.20;99.90;;;8.42;97.20;99809.66;4936374;29;20062;-69
2021/03/11 00:27:57;;;;;;;68.30;47.08;;;8.30;99.90;;;8.46;97.20;99811.34;4935980;29;20050;-70
2021/03/11 00:30:26;;;;;;;74.07;50.42;;;8.30;99.90;;;8.42;97.56;99799.09;4936079;29;20078;-70
2021/03/11 00:32:54;;;;;;;68.25;47.00;;;8.30;99.90;;;8.26;98.02;99758.03;4936037;29;20176;-69
2021/03/11 00:35:23;;;;;;;70.80;47.17;;;8.20;99.90;;;8.45;98.02;99775.34;4936010;29;20060;-69
2021/03/11 00:37:51;;;;;;;71.63;48.40;;;8.30;99.90;;;8.47;98.10;99757.75;4935986;29;20110;-70
2021/03/11 00:40:21;;;;;;;77.72;53.45;;;8.30;99.90;;;8.48;98.33;99776.16;4918754;29;20110;-70
2021/03/11 00:42:49;;;;;;;79.43;53.40;;;8.30;99.90;;;8.50;98.37;99752.41;4935888;29;20122;-69
2021/03/11 00:45:18;;;;;;;95.30;61.38;;;8.30;99.90;;;8.52;98.49;99763.81;4935791;29;20076;-70
2021/03/11 00:47:47;;;;;;;79.57;54.88;;;8.40;99.90;;;8.11;98.24;99673.03;4936069;29;20122;-70
2021/03/11 00:50:18;;;;;;;75.00;52.67;;;8.30;99.90;;;8.52;98.24;99769.06;4918847;29;20051;-70
2021/03/11 00:52:46;;;;;;;78.50;50.35;;;8.40;99.90;;;8.55;98.15;99726.91;4935848;29;20126;-70
2021/03/11 00:55:16;;;;;;;85.55;58.05;;;8.40;99.90;;;8.53;98.15;99731.31;4935697;29;20493;-69
2021/03/11 00:57:43;;;;;;;95.68;66.65;;;8.40;99.90;;;8.54;98.37;99755.00;4935891;29;20440;-69
2021/03/11 01:00:17;;;;;;;106.07;70.28;;;8.40;99.90;;;8.59;98.51;99760.22;4918654;29;20052;-69
2021/03/11 01:03:00;;;;;;;100.43;67.32;;;8.40;99.90;;;8.60;97.89;99736.47;4918603;29;20055;-69
2021/03/11 01:05:36;;;;;;;96.93;64.50;;;8.40;99.90;;;8.60;98.03;99712.75;4917775;29;20070;-69
2021/03/11 01:08:14;;;;;;;94.45;63.42;;;8.40;99.90;;;8.61;97.83;99705.72;4918685;29;20047;-69
2021/03/11 01:10:42;;;;;;;84.45;59.13;;;8.50;99.90;;;8.63;97.97;99704.78;4935462;29;20047;-69
2021/03/11 01:13:10;;;;;;;70.90;52.50;;;8.50;99.90;;;8.65;98.18;99724.09;4935595;29;20044;-69
2021/03/11 01:15:39;;;;;;;86.40;57.22;;;8.50;99.90;;;8.61;98.19;99709.25;4935467;29;20107;-70
2021/03/11 01:18:08;;;;;;;79.18;55.85;;;8.60;99.90;;;8.09;97.98;99594.97;4935383;29;20050;-70
2021/03/11 01:20:36;;;;;;;77.45;53.65;;;8.60;99.90;;;8.47;97.46;99644.44;4935526;29;20060;-69
2021/03/11 01:23:05;;;;;;;68.95;48.65;;;8.60;99.90;;;8.68;98.07;99662.56;4935541;29;20048;-70
2021/03/11 01:25:33;;;;;;;69.68;51.22;;;8.60;99.90;;;8.80;97.98;99672.91;4935460;29;20120;-70
2021/03/11 01:28:01;;;;;;;74.10;50.47;;;8.60;99.90;;;8.56;98.33;99581.03;4918289;29;20051;-70
2021/03/11 01:30:28;;;;;;;69.13;48.28;;;8.70;99.90;;;8.80;98.41;99670.25;4935113;29;20140;-70
2021/03/11 01:32:55;;;;;;;62.38;44.63;;;8.70;99.90;;;8.92;98.18;99646.34;4935754;29;20052;-70
2021/03/11 01:35:23;;;;;;;72.57;49.90;;;8.70;99.90;;;8.46;97.87;99545.25;4935279;29;20044;-69
2021/03/11 01:37:50;;;;;;;70.20;48.00;;;8.80;99.90;;;8.88;98.24;99624.41;4935467;29;20573;-69
2021/03/11 01:40:18;;;;;;;70.80;49.97;;;8.80;99.90;;;8.95;98.25;99630.44;4935481;29;20099;-69
2021/03/11 01:42:47;;;;;;;60.38;42.22;;;8.80;99.90;;;8.93;98.03;99637.50;4935164;29;20572;-70
2021/03/11 01:45:17;;;;;;;61.42;43.55;;;8.80;99.90;;;9.02;97.70;99651.41;4935158;29;20114;-70
2021/03/11 01:47:45;;;;;;;55.80;40.67;;;8.90;99.90;;;9.06;97.59;99596.81;4935082;29;20090;-70
2021/03/11 01:50:13;;;;;;;53.70;38.08;;;8.90;99.90;;;9.07;97.58;99588.91;4935064;29;20071;-71
2021/03/11 01:52:42;;;;;;;57.90;39.63;;;8.90;99.90;;;9.12;97.80;99598.50;4935392;29;20123;-69
2021/03/11 01:55:12;;;;;;;54.20;38.92;;;9.00;99.90;;;9.13;97.32;99574.72;4935124;29;20048;-70
2021/03/11 01:57:40;;;;;;;57.00;39.67;;;9.00;99.90;;;9.21;97.45;99572.81;4935317;29;20036;-70
2021/03/11 02:00:11;;;;;;;58.70;41.22;;;9.00;99.90;;;9.21;97.68;99564.03;4918184;29;20124;-70
2021/03/11 02:02:42;;;;;;;55.58;39.75;;;9.10;99.90;;;9.21;97.64;99564.03;4935145;29;20064;-69
2021/03/11 02:05:13;;;;;;;59.43;41.60;;;9.00;99.90;;;9.26;97.18;99585.91;4935127;29;20063;-70
2021/03/11 02:07:40;;;;;;;53.50;38.95;;;9.10;99.90;;;9.28;97.13;99563.88;4935284;29;20379;-70
2021/03/11 02:10:10;;;;;;;55.33;40.42;;;9.10;99.90;;;9.31;97.23;99560.31;4934853;29;20528;-69
2021/03/11 02:12:48;;;;;;;54.97;39.17;;;9.10;99.90;;;9.35;97.38;99530.31;4935267;29;20139;-69
2021/03/11 02:15:24;;;;;;;50.08;38.30;;;9.20;99.90;;;9.35;97.22;99535.59;4934947;29;20098;-70
2021/03/11 02:18:00;;;;;;;47.85;36.42;;;9.20;99.90;;;9.37;97.29;99547.00;4937728;29;20044;-70
2021/03/11 02:21:01;;;;;;;51.90;38.25;;;9.20;99.90;;;9.36;96.97;99516.22;4938437;29;20063;-70
2021/03/11 02:23:54;;;;;;;53.53;37.70;;;9.20;99.90;;;9.45;97.21;99543.28;4861420;29;20140;-69
2021/03/11 02:26:47;;;;;;;47.50;35.50;;;9.20;99.90;;;9.54;96.62;99529.88;4936759;29;20083;-69
2021/03/11 02:29:18;;;;;;;48.58;34.35;;;9.40;99.90;;;9.03;96.48;99459.78;4936948;29;20119;-70
2021/03/11 02:31:46;;;;;;;46.35;32.72;;;9.40;99.90;;;9.55;96.66;99547.47;4938441;29;20127;-70
2021/03/11 02:34:18;;;;;;;48.13;33.45;;;9.40;99.90;;;9.58;96.49;99494.59;4938327;29;20083;-70
2021/03/11 02:36:49;;;;;;;44.10;31.75;;;9.40;99.90;;;9.56;96.47;99508.75;4938211;29;20043;-69
2021/03/11 02:39:19;;;;;;;46.88;31.95;;;9.40;99.90;;;9.57;96.43;99507.84;4938115;29;20048;-70
2021/03/11 02:41:48;;;;;;;50.33;31.47;;;9.40;99.90;;;9.55;96.95;99493.81;4938302;29;20044;-69
2021/03/11 02:44:17;;;;;;;42.53;29.83;;;9.40;99.90;;;9.61;96.91;99486.63;4937908;29;20116;-70
2021/03/11 02:46:45;;;;;;;43.33;30.02;;;9.40;99.90;;;9.60;96.85;99484.03;4938182;29;20107;-70
2021/03/11 02:49:13;;;;;;;45.50;30.17;;;9.50;99.90;;;9.59;97.28;99511.31;4937970;29;20564;-69
2021/03/11 02:51:42;;;;;;;41.38;29.25;;;9.40;99.90;;;9.64;97.10;99457.50;4937690;29;20096;-69
2021/03/11 02:54:11;;;;;;;39.50;29.20;;;9.50;99.90;;;9.60;97.46;99471.69;4938094;29;20051;-70
2021/03/11 02:57:00;;;;;;;45.38;30.45;;;9.50;99.90;;;9.65;97.72;99439.91;4938135;29;20062;-69
2021/03/11 02:59:30;;;;;;;40.90;30.33;;;9.50;99.90;;;9.62;97.60;99438.19;4937841;29;20063;-70
2021/03/11 03:02:00;;;;;;;44.20;31.52;;;9.40;99.90;;;9.67;97.59;99441.63;4937893;29;20493;-70
2021/03/11 03:04:29;;;;;;;40.08;29.83;;;9.50;99.90;;;8.98;97.82;99316.63;4938132;29;20079;-70
2021/03/11 03:06:58;;;;;;;40.20;27.40;;;9.50;99.90;;;9.75;97.56;99433.50;4937762;29;20047;-69
2021/03/11 03:09:27;;;;;;;41.42;27.98;;;9.60;99.90;;;9.11;97.63;99339.16;4937438;29;20119;-70
2021/03/11 03:11:55;;;;;;;39.28;28.00;;;9.60;99.90;;;9.79;97.60;99412.25;4937596;29;20075;-69
2021/03/11 03:14:23;;;;;;;37.22;27.13;;;9.60;99.90;;;9.84;97.26;99439.44;4937555;29;20052;-70
2021/03/11 03:16:53;;;;;;;39.45;28.50;;;9.70;99.90;;;9.90;97.69;99434.00;4937361;29;20099;-69
2021/03/11 03:19:21;;;;;;;35.43;26.23;;;9.70;99.90;;;9.88;97.11;99396.19;4937393;29;20043;-70
2021/03/11 03:21:50;;;;;;;35.55;26.50;;;9.70;99.90;;;9.83;96.93;99362.91;4937260;29;20299;-70
2021/03/11 03:24:19;;;;;;;33.47;25.52;;;9.80;99.90;;;9.86;96.78;99353.13;4937271;29;20047;-69
2021/03/11 03:26:47;;;;;;;31.65;23.42;;;9.80;99.90;;;9.84;96.46;99369.91;4937323;29;20452;-70
2021/03/11 03:29:15;;;;;;;34.72;24.25;;;9.80;99.90;;;10.05;96.64;99377.25;4919268;29;20051;-69
2021/03/11 03:31:42;;;;;;;32.80;23.38;;;9.90;99.90;;;10.08;96.54;99371.03;4937158;29;20048;-69
2021/03/11 03:34:11;;;;;;;31.98;22.90;;;9.90;99.90;;;10.10;96.37;99398.31;4937325;29;20466;-69
2021/03/11 03:36:38;;;;;;;31.67;21.83;;;10.00;99.90;;;10.13;96.26;99350.69;4937105;29;20861;-70
2021/03/11 03:39:06;;;;;;;30.30;19.85;;;10.00;99.90;;;10.16;96.01;99366.47;4937046;29;20039;-70
2021/03/11 03:41:38;;;;;;;29.60;21.65;;;10.00;99.90;;;10.17;95.65;99332.06;4936964;29;20071;-69
2021/03/11 03:44:07;;;;;;;29.55;20.92;;;10.00;99.90;;;10.25;95.62;99323.94;4936939;29;20047;-70
2021/03/11 03:46:35;;;;;;;28.75;21.17;;;10.10;99.90;;;10.27;95.06;99317.69;4937113;29;20055;-69
2021/03/11 03:49:04;;;;;;;29.25;20.10;;;10.10;99.90;;;10.31;94.90;99347.53;4936788;29;20043;-70
2021/03/11 03:51:36;;;;;;;26.23;19.60;;;10.10;99.90;;;10.12;94.71;99272.34;4919791;29;20054;-70
2021/03/11 03:54:08;;;;;;;26.67;19.13;;;10.20;99.90;;;10.33;94.75;99327.22;4936878;29;20051;-70
2021/03/11 03:56:38;;;;;;;26.92;18.95;;;10.20;99.90;;;10.38;94.77;99315.59;4919899;29;20142;-69
2021/03/11 03:59:10;;;;;;;28.30;19.13;;;10.20;99.90;;;10.38;94.48;99309.44;4936684;29;20573;-69
2021/03/11 04:01:40;;;;;;;28.92;19.77;;;10.20;99.90;;;10.40;94.52;99323.47;4936764;29;20126;-70
2021/03/11 04:04:11;;;;;;;25.80;18.95;;;10.20;99.90;;;10.42;94.39;99308.44;4936723;29;20126;-69
2021/03/11 04:06:41;;;;;;;24.52;18.75;;;10.30;99.90;;;10.46;94.32;99312.75;4936514;29;20051;-69
2021/03/11 04:09:11;;;;;;;26.10;18.30;;;10.30;99.90;;;10.45;93.92;99285.44;4936760;29;20055;-70
2021/03/11 04:11:39;;;;;;;27.75;18.58;;;10.30;99.90;;;10.49;94.09;99291.53;4936574;29;20052;-69
2021/03/11 04:14:08;;;;;;;25.58;18.20;;;10.30;99.90;;;10.51;94.24;99263.28;4936308;29;20080;-69
2021/03/11 04:16:37;;;;;;;24.50;17.67;;;10.30;99.90;;;10.38;94.94;99289.19;4936453;29;20043;-69
2021/03/11 04:19:05;;;;;;;26.83;18.33;;;10.30;99.90;;;10.43;95.17;99310.19;4936274;29;20047;-70
2021/03/11 04:21:34;;;;;;;26.50;18.73;;;10.30;99.90;;;10.29;95.62;99267.44;4936223;29;20573;-69
2021/03/11 04:24:04;;;;;;;28.25;18.00;;;10.30;99.90;;;10.38;95.51;99236.31;4936231;29;20079;-70
2021/03/11 04:26:32;;;;;;;27.52;19.63;;;10.20;99.90;;;10.44;95.95;99307.50;4936430;29;20055;-70
2021/03/11 04:29:01;;;;;;;27.73;17.92;;;10.20;99.90;;;10.41;96.23;99273.25;4936136;29;20095;-70
2021/03/11 04:31:29;;;;;;;30.90;20.00;;;10.30;99.90;;;10.39;96.86;99290.94;4936144;29;20465;-70
2021/03/11 04:33:57;;;;;;;28.70;20.00;;;10.20;99.90;;;10.35;97.17;99317.47;4935996;29;20094;-70
2021/03/11 04:36:26;;;;;;;31.17;19.98;;;10.20;99.90;;;10.44;97.44;99286.38;4919113;29;20079;-69
2021/03/11 04:38:54;;;;;;;28.77;19.02;;;10.20;99.90;;;10.39;97.41;99277.72;4935984;29;20052;-69
2021/03/11 04:41:27;;;;;;;28.77;20.05;;;10.20;99.90;;;10.42;97.37;99271.44;4936173;29;20083;-69
2021/03/11 04:43:56;;;;;;;29.35;19.98;;;10.20;99.90;;;10.36;97.54;99284.84;4935950;29;20085;-69
2021/03/11 04:46:24;;;;;;;31.17;20.73;;;10.20;99.90;;;10.38;98.23;99256.59;4935834;29;20082;-69
2021/03/11 04:48:53;;;;;;;30.05;21.88;;;10.20;99.90;;;10.33;98.17;99263.81;4919169;29;20059;-69
2021/03/11 04:51:22;;;;;;;26.55;19.13;;;10.20;99.90;;;10.35;98.71;99267.28;4918739;29;20079;-69
2021/03/11 04:53:54;;;;;;;32.40;20.50;;;10.20;99.90;;;10.33;98.79;99269.97;4935871;29;20047;-69
2021/03/11 04:56:22;;;;;;;28.55;19.20;;;10.10;99.90;;;10.32;98.88;99246.19;4935937;29;20051;-69
2021/03/11 04:58:51;;;;;;;24.58;17.92;;;10.20;99.90;;;10.33;98.90;99263.81;4935852;29;20051;-69
2021/03/11 05:01:24;;;;;;;29.65;17.83;;;10.20;99.90;;;10.31;98.92;99260.34;4935863;29;20039;-69
2021/03/11 05:03:53;;;;;;;26.05;17.90;;;10.10;99.90;;;10.39;99.26;99230.16;4918708;29;20075;-70
2021/03/11 05:06:20;;;;;;;31.42;19.73;;;10.20;99.90;;;10.36;99.36;99237.28;4935614;29;20099;-70
2021/03/11 05:08:48;;;;;;;29.17;18.70;;;10.20;99.90;;;10.36;99.24;99255.78;4935633;29;20039;-68
2021/03/11 05:11:15;;;;;;;29.83;20.60;;;10.20;99.90;;;10.35;99.73;99267.28;4935478;29;20075;-74
2021/03/11 05:13:43;;;;;;;30.85;20.02;;;10.20;99.90;;;10.34;99.71;99231.16;4935463;29;20131;-74
2021/03/11 05:16:11;;;;;;;34.90;21.10;;;10.20;99.90;;;10.38;99.47;99259.22;4935705;29;20073;-75
2021/03/11 05:18:38;;;;;;;30.02;20.20;;;10.20;99.90;;;10.44;99.31;99236.16;4935442;29;20040;-75
2021/03/11 05:21:08;;;;;;;31.92;21.38;;;10.20;99.90;;;10.46;99.28;99222.88;4935230;29;20060;-74
2021/03/11 05:23:55;;;;;;;27.27;20.02;;;10.30;99.90;;;10.42;99.47;99248.53;4935382;29;20055;-75
2021/03/11 05:26:22;;;;;;;25.95;18.50;;;10.30;99.90;;;10.51;99.37;99229.75;4935497;29;20059;-71
2021/03/11 05:28:49;;;;;;;27.33;18.38;;;10.30;99.90;;;10.53;99.24;99251.72;4935631;29;20515;-72
2021/03/11 05:31:17;;;;;;;24.42;16.75;;;10.40;99.90;;;10.55;99.14;99223.47;4935329;29;20052;-73
2021/03/11 05:33:45;;;;;;;21.65;16.00;;;10.40;99.90;;;10.52;99.27;99227.97;4935374;29;20051;-76
2021/03/11 05:36:12;;;;;;;23.98;15.70;;;10.40;99.90;;;10.58;99.00;99243.66;4935334;29;20512;-73
2021/03/11 05:38:44;;;;;;;23.58;15.35;;;10.40;99.90;;;10.65;98.46;99232.84;4935430;29;20039;-72
2021/03/11 05:41:13;;;;;;;22.67;13.77;;;10.50;99.90;;;10.53;97.98;99204.13;4935565;29;20048;-72
2021/03/11 05:43:42;;;;;;;23.42;13.88;;;10.40;99.90;;;10.58;97.92;99225.16;4935254;29;20075;-72
2021/03/11 05:46:11;;;;;;;19.92;13.60;;;10.40;99.90;;;10.57;97.46;99224.28;4935249;29;20074;-72
2021/03/11 05:48:41;;;;;;;23.20;13.32;;;10.40;99.90;;;10.68;97.50;99208.09;4935146;29;20478;-72
2021/03/11 05:51:09;;;;;;;23.70;13.80;;;10.50;99.90;;;10.71;97.13;99205.34;4935258;29;20500;-72
2021/03/11 05:53:38;;;;;;;23.23;13.23;;;10.50;99.90;;;10.60;96.95;99171.34;4938938;29;20048;-72
2021/03/11 05:56:07;;;;;;;27.52;13.05;;;10.60;99.90;;;10.54;96.16;99160.06;4921822;29;20058;-72
2021/03/11 05:58:34;;;;;;;22.23;11.93;;;10.60;99.90;;;10.76;95.70;99183.13;4938915;29;20058;-72
2021/03/11 06:01:02;;;;;;;24.48;11.43;;;10.60;99.90;;;10.78;95.43;99193.69;4921805;29;20055;-72
2021/03/11 06:03:33;;;;;;;23.92;10.50;;;10.60;99.90;;;10.70;94.76;99171.91;4938775;29;20044;-71
2021/03/11 06:06:03;;;;;;;31.38;10.07;;;10.60;99.90;;;10.76;94.19;99196.34;4938784;29;20398;-72
2021/03/11 06:08:31;;;;;;;20.15;9.98;;;10.60;99.90;;;10.82;93.17;99179.41;4938578;29;20495;-72
2021/03/11 06:11:00;;;;;;;25.95;8.30;;;10.70;99.90;;;10.84;92.43;99180.22;4938639;29;20094;-72
2021/03/11 06:13:29;;;;;;;23.13;9.15;;;10.70;99.90;;;10.85;91.79;99184.63;4938882;29;20050;-72
2021/03/11 06:16:02;;;;;;;23.77;8.07;;;10.70;99.90;;;10.92;91.18;99178.19;4938718;29;20054;-72
2021/03/11 06:18:32;;;;;;;28.83;8.88;;;10.70;99.90;;;10.98;90.31;99179.78;4938487;29;20569;-72
2021/03/11 06:21:00;;;;;;;;;;;10.80;99.90;;;11.03;90.03;99165.50;4939001;29;20060;-72
2021/03/11 06:23:29;;;;;;;35.90;9.25;;;10.80;99.90;;;10.99;89.41;99163.88;4938519;29;19922;-72
2021/03/11 06:25:58;;;;;;;33.75;8.23;;;10.80;99.90;;;10.98;88.29;99154.19;4938157;29;20054;-72
2021/03/11 06:28:54;;;;;;;31.42;8.20;;;10.80;99.90;;;10.89;86.98;99157.16;4938065;29;20485;-72
2021/03/11 06:31:25;;;;;;;34.17;8.32;;;10.90;99.90;;;10.95;85.72;99154.31;4938482;29;20043;-73
2021/03/11 06:33:54;;;;;;;;;;;10.80;99.90;;;10.99;84.65;99155.06;4938716;29;20040;-72
2021/03/11 06:36:23;;;;;;;49.20;10.50;;;10.80;99.90;;;10.99;84.41;99155.94;4938163;29;20407;-72
2021/03/11 06:38:52;;;;;;;44.80;10.75;;;10.80;99.90;;;10.98;83.70;99167.41;4938160;29;20087;-72
2021/03/11 06:41:20;;;;;;;53.25;12.60;;;10.80;99.90;;;11.01;82.76;99150.59;4938279;29;20048;-73
2021/03/11 06:43:53;;;;;;;57.05;11.40;;;10.80;99.90;;;11.02;81.97;99179.63;4938152;29;20126;-72
2021/03/11 06:46:22;;;;;;;58.13;12.02;;;10.80;99.90;;;11.05;81.08;99129.28;4938073;29;20059;-72
2021/03/11 06:48:50;;;;;;;55.67;12.07;;;10.90;99.90;;;11.07;81.03;99159.16;4938213;29;20054;-73
2021/03/11 06:51:20;;;;;;;70.25;13.95;;;10.90;99.90;;;11.04;80.77;99159.28;4937774;29;20048;-72
2021/03/11 06:53:57;;;;;;;51.80;12.80;;;10.90;99.90;;;11.03;80.44;99147.00;4921245;29;20686;-72
2021/03/11 06:56:26;;;;;;;65.85;12.77;;;10.90;99.90;;;11.03;80.17;99131.13;4938027;29;20430;-73
2021/03/11 06:58:58;;;;;;;67.25;13.95;;;10.90;99.90;;;11.01;80.38;99121.50;4937905;29;20055;-72
2021/03/11 07:01:27;;;;;;;66.88;13.60;;;10.80;99.90;;;11.03;79.83;99112.59;4937751;29;20095;-73
2021/03/11 07:03:55;;;;;;;64.75;12.98;;;10.80;99.90;;;10.99;79.42;99169.16;4936461;29;20490;-73
2021/03/11 07:06:28;;;;;;;73.40;13.70;;;10.90;99.90;;;10.55;79.11;99021.72;4937852;29;20079;-73
2021/03/11 07:08:58;;;;;;;74.88;15.38;;;10.90;99.90;;;11.19;79.15;99132.28;4937698;29;20051;-72
2021/03/11 07:11:26;;;;;;;70.43;13.70;;;11.00;99.90;;;11.22;78.37;99115.47;4920501;29;20418;-72
2021/03/11 07:13:56;;;;;;;63.95;12.73;;;11.00;99.90;;;11.21;78.04;99141.03;4937659;29;20067;-72
2021/03/11 07:16:25;;;;;;;58.42;12.75;;;11.00;99.90;;;11.07;77.83;99100.97;4937373;29;20091;-72
2021/03/11 07:19:11;;;;;;;61.92;12.55;;;10.90;99.90;;;11.02;78.28;99129.38;4937622;29;20114;-72
2021/03/11 07:21:44;;;;;;;72.18;13.27;;;10.90;99.90;;;10.97;78.47;99115.44;4937232;29;20052;-72
2021/03/11 07:24:31;;;;;;;56.28;13.10;;;10.80;99.90;;;11.00;78.84;99131.19;4937290;29;20127;-73
2021/03/11 07:26:59;;;;;;;58.85;12.00;;;10.80;99.90;;;10.89;78.60;99099.84;4937319;29;20040;-72
2021/03/11 07:29:26;;;;;;;55.85;11.95;;;10.80;99.90;;;11.03;78.89;99115.25;4937623;29;20051;-72
2021/03/11 07:31:55;;;;;;;64.93;13.32;;;10.90;99.90;;;11.04;79.19;99071.97;4937083;29;20104;-72
2021/03/11 07:34:27;;;;;;;61.53;13.15;;;10.90;99.90;;;11.11;79.17;99102.59;4937316;29;20098;-72
2021/03/11 07:36:58;;;;;;;50.35;11.63;;;10.90;99.90;;;11.22;79.29;99091.63;4937220;29;20447;-72
2021/03/11 07:39:38;;;;;;;59.78;12.98;;;11.00;99.90;;;11.21;78.92;99077.53;4937126;29;20047;-71
2021/03/11 07:42:08;;;;;;;64.93;13.07;;;11.00;99.90;;;11.17;78.76;99065.34;4920177;29;20060;-71
2021/03/11 07:44:37;;;;;;;68.32;13.13;;;11.00;99.90;;;11.33;79.16;99066.53;4937058;29;20063;-71
2021/03/11 07:47:10;;;;;;;65.13;14.02;;;11.20;99.90;;;11.46;77.95;99053.69;4919928;29;20394;-72
2021/03/11 07:49:38;;;;;;;59.28;13.90;;;11.30;99.90;;;11.54;76.96;99048.97;4936750;29;20047;-71
2021/03/11 07:52:07;;;;;;;51.35;11.45;;;11.40;99.90;;;11.72;76.99;99091.56;4936792;29;20047;-71
2021/03/11 07:54:36;;;;;;;56.22;12.95;;;11.50;99.90;;;11.82;75.98;99086.78;4936933;29;20099;-71
2021/03/11 07:57:04;;;;;;;63.15;13.43;;;11.60;99.90;;;11.72;75.31;99053.63;4936616;29;20039;-71
2021/03/11 07:59:34;;;;;;;52.05;12.15;;;11.70;99.90;;;11.78;74.34;99043.66;4936659;29;20044;-72
2021/03/11 08:02:07;;;;;;;58.78;13.43;;;11.80;99.90;;;12.06;74.30;99101.72;4936914;29;20131;-72
2021/03/11 08:04:40;;;;;;;61.50;14.23;;;11.90;99.90;;;12.02;74.41;99120.47;4936534;29;20127;-72
2021/03/11 08:07:22;;;;;;;69.90;12.80;;;11.90;99.90;;;11.96;74.48;99089.78;4936734;29;20055;-71
2021/03/11 08:09:52;;;;;;;69.57;14.57;;;11.80;99.90;;;12.13;73.99;99108.53;4936838;29;20099;-72
2021/03/11 08:12:37;;;;;;;68.05;14.02;;;11.90;99.90;;;12.08;73.24;99091.09;4936382;29;20047;-72
2021/03/11 08:15:07;;;;;;;59.03;15.32;;;11.90;99.90;;;11.73;73.07;99039.44;4936063;29;20106;-72
2021/03/11 08:17:46;;;;;;;67.35;14.00;;;12.00;99.90;;;12.18;72.27;99065.91;4936903;29;20051;-72
2021/03/11 08:20:39;;;;;;;66.80;13.57;;;12.00;99.90;;;12.38;71.11;99125.19;4936035;29;20090;-71
2021/03/11 08:23:11;;;;;;;62.78;12.43;;;12.10;99.90;;;12.52;70.94;99075.09;4936222;29;20122;-72
2021/03/11 08:25:51;;;;;;;69.28;13.70;;;12.30;99.90;;;12.70;70.82;99086.75;4936398;29;20572;-71
2021/03/11 08:28:39;;;;;;;58.40;13.80;;;12.50;99.90;;;12.84;69.98;99076.41;4936125;29;20412;-72
2021/03/11 08:31:08;;;;;;;66.60;14.57;;;12.60;99.90;;;12.91;70.01;99083.19;4936162;29;20050;-72
2021/03/11 08:33:51;;;;;;;70.63;13.65;;;12.70;99.90;;;12.98;68.92;99094.41;4935971;29;20052;-72
2021/03/11 08:36:40;;;;;;;65.45;13.50;;;12.80;99.90;;;13.06;68.33;99118.88;4936015;29;20050;-72
2021/03/11 08:39:33;;;;;;;65.57;13.98;;;12.90;99.90;;;12.93;68.28;99097.25;4936120;29;20051;-73
2021/03/11 08:42:48;;;;;;;62.80;14.15;;;12.80;99.90;;;13.01;68.75;99103.09;4935826;29;20051;-72
2021/03/11 08:45:59;;;;;;;66.57;14.02;;;12.80;99.90;;;12.71;68.16;99069.91;4935997;29;20051;-72
2021/03/11 08:48:39;;;;;;;75.40;15.00;;;12.70;99.90;;;12.66;69.36;99029.44;4918676;29;20580;-72
2021/03/11 08:51:11;;;;;;;65.53;14.00;;;12.50;99.90;;;12.56;69.53;99075.84;4935998;29;20094;-72
2021/03/11 08:53:50;;;;;;;58.75;14.00;;;12.40;99.90;;;12.16;70.19;99020.94;4919051;29;20043;-73
2021/03/11 08:56:43;;;;;;;76.82;14.07;;;12.10;99.90;;;12.13;71.85;99089.09;4935781;29;20048;-73
2021/03/11 08:59:14;;;;;;;75.97;15.05;;;12.00;99.90;;;11.94;71.12;99059.81;4932036;29;20914;-73
2021/03/11 09:01:47;;;;;;;66.70;15.10;;;11.90;99.90;;;12.21;71.49;99110.88;4935922;29;20051;-72
2021/03/11 09:04:42;;;;;;;66.40;14.45;;;12.00;99.90;;;12.50;70.95;99074.28;4935840;29;20052;-72
2021/03/11 09:07:28;;;;;;;67.70;15.00;;;12.30;99.90;;;12.66;69.18;99077.19;4935553;29;20043;-73
2021/03/11 09:09:56;;;;;;;70.38;16.35;;;12.50;99.90;;;12.76;68.68;99089.13;4935590;29;20062;-73
2021/03/11 09:12:31;;;;;;;66.30;15.10;;;12.60;99.90;;;12.98;68.39;99083.78;4935780;29;20066;-72
2021/03/11 09:15:02;;;;;;;77.45;15.00;;;12.80;99.90;;;13.02;69.09;99109.28;4935230;29;20051;-72
2021/03/11 09:17:31;;;;;;;60.63;14.50;;;12.80;99.90;;;12.94;67.91;99117.56;4935524;29;20051;-73
2021/03/11 09:20:01;;;;;;;69.88;14.30;;;12.80;99.90;;;12.87;68.16;99059.53;4935808;29;20048;-72
2021/03/11 09:22:31;;;;;;;64.85;14.27;;;12.80;99.90;;;12.56;67.18;99059.94;4935495;29;20095;-72
2021/03/11 09:25:14;;;;;;;65.30;14.27;;;12.50;99.90;;;12.49;68.08;99069.94;4935431;29;20048;-72
2021/03/11 09:27:57;;;;;;;66.65;14.48;;;12.40;99.90;;;12.42;68.22;99072.91;4934754;29;20295;-73
2021/03/11 09:30:29;;;;;;;62.60;13.50;;;12.30;99.90;;;12.46;68.68;99085.97;4934728;29;20047;-73
2021/03/11 09:32:57;;;;;;;62.25;13.35;;;12.30;99.90;;;12.83;68.33;99047.31;4935506;29;20066;-73
2021/03/11 09:35:27;;;;;;;65.47;14.73;;;12.60;99.90;;;12.73;67.74;99113.16;4935317;29;20132;-72
2021/03/11 09:37:57;;;;;;;61.78;14.57;;;12.50;99.90;;;12.82;68.52;99114.53;4935306;29;20106;-72
2021/03/11 09:40:36;;;;;;;67.38;14.52;;;12.60;99.90;;;12.94;68.10;99082.19;4935322;29;20261;-72
2021/03/11 09:43:13;;;;;;;71.60;13.68;;;12.80;99.90;;;13.14;68.54;99006.09;4935483;29;20166;-72
2021/03/11 09:45:51;;;;;;;79.93;14.98;;;12.90;99.90;;;13.01;67.52;99065.94;4935443;29;20058;-72
2021/03/11 09:48:23;;;;;;;72.95;15.57;;;13.00;99.90;;;13.15;67.82;99041.50;4935325;29;20048;-73
2021/03/11 09:51:04;;;;;;;68.43;15.05;;;13.00;99.90;;;12.89;68.56;99126.66;4935027;29;20154;-72
2021/03/11 09:53:38;;;;;;;64.22;14.85;;;12.80;99.90;;;12.81;68.47;99076.56;4935576;29;20054;-72
2021/03/11 09:56:11;;;;;;;75.68;14.77;;;12.70;99.90;;;12.87;69.26;99097.53;4918207;29;20411;-72
2021/03/11 09:58:47;;;;;;;75.13;15.07;;;12.70;99.90;;;12.80;69.13;99141.16;4935245;29;20052;-72
2021/03/11 10:01:25;;;;;;;69.68;15.02;;;12.70;99.90;;;12.65;68.60;99083.44;4918017;29;20486;-73
2021/03/11 10:03:54;;;;;;;60.05;14.65;;;12.50;99.90;;;12.47;68.86;99071.78;4934932;29;20493;-73
2021/03/11 10:06:23;;;;;;;72.28;15.18;;;12.40;99.90;;;12.33;69.32;99121.00;4934988;29;20114;-73
2021/03/11 10:08:54;;;;;;;66.47;13.35;;;12.20;99.90;;;12.27;69.93;99108.00;4918002;29;20043;-73
2021/03/11 10:11:26;;;;;;;76.35;14.38;;;12.10;99.90;;;12.34;70.39;99143.91;4935016;29;20071;-73
2021/03/11 10:14:00;;;;;;;68.90;14.82;;;12.10;99.90;;;12.15;70.04;99111.09;4935026;29;20054;-73
2021/03/11 10:16:44;;;;;;;74.72;16.30;;;12.00;99.90;;;12.07;70.98;99118.50;4935386;29;20048;-73
2021/03/11 10:19:16;;;;;;;69.18;14.68;;;12.00;99.90;;;12.04;70.37;99079.72;4934925;29;20067;-72
2021/03/11 10:21:52;;;;;;;80.78;14.50;;;11.90;99.90;;;11.92;70.88;99158.81;4935234;29;20099;-73
2021/03/11 10:24:40;;;;;;;78.03;15.90;;;11.80;99.90;;;11.94;71.44;99133.13;4934862;29;20043;-73
2021/03/11 10:27:22;;;;;;;73.90;14.52;;;11.80;99.90;;;12.07;71.88;99144.97;4935151;29;20051;-72
2021/03/11 10:30:06;;;;;;;74.50;14.07;;;11.90;99.90;;;12.07;70.80;99147.63;4935196;29;20486;-73